Flight Track Log - Related Links

Times and Time Zones

All times are in EDT time to prevent confusion due to time zone crossing. See the N524NK flight status page for this flight to view local times or setup timezone preferences in your user account.

Time Position Orientation Groundspeed Altitude Reporting Facility
EDT Latitude Longitude Course Direction KTS MPH feet Rate Location/Type
Sun 06:36:16 PM 32.8333 -97.0500 320° Northwest 191 220 2,400  Level Dallas / Fort Worth TRACON
Sun 06:37:16 PM 32.7833 -97.0833 209° Southwest 249 287 6,200 3,620 Climbing Dallas / Fort Worth TRACON
Sun 06:38:17 PM 32.7667 -97.1667 257° West 276 318 9,700 3,174 Climbing Dallas / Fort Worth TRACON
Sun 06:39:17 PM 32.8000 -97.2333 301° West 289 333 12,600 2,400 Climbing Dallas / Fort Worth TRACON
Sun 06:40:07 PM 32.8833 -97.2378 357° North 363 418 14,100 2,182 Climbing Fort Worth Center
Sun 06:41:00 PM 33.0547 -96.8713 320° Northwest  Level FlightAware Approximate
Sun 06:41:07 PM 32.9731 -97.2425 357° North 380 437 16,600  Level Fort Worth Center
Sun 06:46:37 PM 33.5780 -97.2360 357° North 407 468 26,500 1,817 Climbing FlightAware ADS-B
Sun 06:47:07 PM 33.6340 -97.2300 North 406 467 27,500 1,543 Climbing FlightAware ADS-B
Sun 06:47:47 PM 33.7100 -97.2220 North 416 479 28,300 1,482 Climbing FlightAware ADS-B
Sun 06:48:32 PM 33.7940 -97.2130 North 413 475 29,600 1,629 Climbing FlightAware ADS-B
Sun 06:48:57 PM 33.8440 -97.2240 350° North 390 449 30,200 1,371 Climbing FlightAware ADS-B
Sun 06:49:42 PM 33.9100 -97.2760 327° Northwest 378 435 31,200 1,624 Climbing FlightAware ADS-B
Sun 06:50:22 PM 33.9650 -97.3240 324° Northwest 372 428 32,500 1,725 Climbing FlightAware ADS-B
Sun 06:51:02 PM 34.0210 -97.3730 324° Northwest 369 425 33,500 1,500 Climbing FlightAware ADS-B
Sun 06:51:42 PM 34.0760 -97.4220 324° Northwest 367 422 34,500 706 Climbing FlightAware ADS-B
Sun 06:52:27 PM 34.1290 -97.4700 323° Northwest 367 422 34,500 1,050 Level FlightAware ADS-B
Sun 06:53:02 PM 34.1800 -97.5140 324° Northwest 367 422 35,900 1,059 Climbing FlightAware ADS-B
Sun 06:53:52 PM 34.2500 -97.5770 323° Northwest 374 430 36,000 57 Climbing FlightAware ADS-B
Sun 06:54:47 PM 34.3240 -97.6430 324° Northwest 376 433 36,000  Level FlightAware ADS-B
Sun 06:55:27 PM 34.3710 -97.6870 322° Northwest 376 433 36,000  Level FlightAware ADS-B
Sun 06:56:22 PM 34.4590 -97.7650 324° Northwest 373 429 36,000  Level FlightAware ADS-B
Sun 06:57:02 PM 34.5060 -97.8070 324° Northwest 373 429 36,000  Level FlightAware ADS-B
Sun 06:57:52 PM 34.5650 -97.8610 323° Northwest 373 429 36,000  Level FlightAware ADS-B
Sun 06:58:32 PM 34.6120 -97.9040 323° Northwest 373 429 36,000  Level FlightAware ADS-B
Sun 06:59:12 PM 34.6580 -97.9470 322° Northwest 373 429 36,000  Level FlightAware ADS-B
Sun 06:59:52 PM 34.7050 -97.9900 323° Northwest 373 429 36,000  Level FlightAware ADS-B
Sun 07:00:32 PM 34.7520 -98.0330 323° Northwest 373 429 36,000  Level FlightAware ADS-B
Sun 07:01:22 PM 34.8110 -98.0860 324° Northwest 373 429 36,000  Level FlightAware ADS-B
Sun 07:01:37 PM 34.8800 -98.1690 315° West 355 409 36,000  Level FlightAware ADS-B
Sun 07:02:12 PM 34.9130 -98.2190 309° West 357 411 36,000  Level FlightAware ADS-B
Sun 07:02:52 PM 34.9470 -98.2730 308° West 357 411 36,000  Level FlightAware ADS-B
Sun 07:03:22 PM 34.9730 -98.3140 308° West 357 411 36,000  Level FlightAware ADS-B
Sun 07:04:12 PM 35.0170 -98.3810 309° West 357 411 36,000  Level FlightAware ADS-B
Sun 07:04:52 PM 35.0800 -98.4730 310° West 362 417 36,000  Level FlightAware ADS-B
Sun 07:05:32 PM 35.1150 -98.5280 308° West 362 417 36,000  Level FlightAware ADS-B
Sun 07:06:12 PM 35.1500 -98.5830 308° West 362 417 36,000  Level FlightAware ADS-B
Sun 07:06:47 PM 35.2020 -98.6600 310° West 366 421 36,000  Level FlightAware ADS-B
Sun 07:07:32 PM 35.2450 -98.7270 308° West 366 421 36,000  Level FlightAware ADS-B
Sun 07:08:12 PM 35.2800 -98.7820 308° West 366 421 36,000  Level FlightAware ADS-B
Sun 07:09:02 PM 35.3250 -98.8520 308° West 366 421 36,000  Level FlightAware ADS-B
Sun 07:09:42 PM 35.3600 -98.9070 308° West 366 421 36,000  Level FlightAware ADS-B
Sun 07:10:22 PM 35.3960 -98.9630 308° West 366 421 36,000  Level FlightAware ADS-B
Sun 07:11:02 PM 35.4310 -99.0190 308° West 366 421 36,000  Level FlightAware ADS-B
Sun 07:11:52 PM 35.4750 -99.0880 308° West 366 421 36,000  Level FlightAware ADS-B
Sun 07:12:32 PM 35.5110 -99.1440 308° West 366 421 36,000  Level FlightAware ADS-B
Sun 07:13:12 PM 35.5460 -99.2000 308° West 366 421 36,000  Level FlightAware ADS-B
Sun 07:13:52 PM 35.5820 -99.2560 308° West 366 421 36,000  Level FlightAware ADS-B
Sun 07:14:42 PM 35.6260 -99.3250 308° West 366 421 36,000  Level FlightAware ADS-B
Sun 07:15:22 PM 35.6610 -99.3810 308° West 366 421 36,000  Level FlightAware ADS-B
Sun 07:16:02 PM 35.6970 -99.4370 308° West 366 421 36,000  Level FlightAware ADS-B
Sun 07:16:42 PM 35.7320 -99.4930 308° West 366 421 36,000  Level FlightAware ADS-B
Sun 07:17:08 PM 35.8908 -99.6569 308° West 385 443 36,000  Level Kansas City Center
Sun 07:18:12 PM 35.9706 -99.7461 318° Northwest 384 442 36,000  Level Kansas City Center
Sun 07:19:12 PM 36.0506 -99.8361 318° Northwest 386 444 36,000  Level Kansas City Center
Sun 07:20:13 PM 36.1311 -99.9253 318° Northwest 385 443 36,000  Level Kansas City Center
Sun 07:21:17 PM 36.2094 -100.0142 318° Northwest 383 441 36,000  Level Kansas City Center
Sun 07:22:18 PM 36.2900 -100.1053 318° Northwest 386 444 36,000  Level Kansas City Center
Sun 07:23:19 PM 36.3700 -100.1936 318° Northwest 385 443 36,000  Level Kansas City Center
Sun 07:24:23 PM 36.4644 -100.3011 318° Northwest 383 441 36,000  Level Kansas City Center
Sun 07:25:24 PM 36.5417 -100.3892 318° Northwest 378 435 36,000  Level Kansas City Center
Sun 07:26:25 PM 36.6133 -100.4731 317° Northwest 378 435 36,000  Level Kansas City Center
Sun 07:27:29 PM 36.6997 -100.5714 318° Northwest 376 433 36,000  Level Kansas City Center
Sun 07:28:30 PM 36.7742 -100.6564 318° Northwest 377 434 36,000  Level Kansas City Center
Sun 07:29:34 PM 36.8600 -100.7569 317° Northwest 379 436 36,000  Level Kansas City Center
Sun 07:30:34 PM 36.9342 -100.8419 318° Northwest 378 435 36,000  Level Kansas City Center
Sun 07:31:37 PM 37.0208 -100.9414 318° Northwest 378 435 36,000  Level Kansas City Center
Sun 07:32:39 PM 37.0903 -101.0356 313° West 382 440 36,000  Level Kansas City Center
Sun 07:33:40 PM 37.1669 -101.1506 310° West 383 441 36,000  Level Kansas City Center
Sun 07:34:43 PM 37.2347 -101.2483 311° West 385 443 36,000  Level Kansas City Center
Sun 07:35:43 PM 37.3022 -101.3472 311° West 387 445 36,000  Level Kansas City Center
Sun 07:36:48 PM 37.3808 -101.4633 310° West 388 447 36,000  Level Kansas City Center
Sun 07:37:48 PM 37.4481 -101.5622 311° West 388 447 36,000  Level Kansas City Center
Sun 07:43:58 PM 37.8791 -102.1960 311° West 369 425 36,000  Level FlightAware ADS-B
Sun 07:44:28 PM 37.9140 -102.2440 313° West 369 425 36,000  Level FlightAware ADS-B
Sun 07:44:59 PM 37.9497 -102.2920 313° West 369 425 36,000  Level FlightAware ADS-B
Sun 07:45:29 PM 37.9845 -102.3400 313° West 368 423 36,000  Level FlightAware ADS-B
Sun 07:46:00 PM 38.0203 -102.3880 313° West 367 422 36,000  Level FlightAware ADS-B
Sun 07:46:30 PM 38.0549 -102.4360 312° West 365 420 36,000  Level FlightAware ADS-B
Sun 07:47:01 PM 38.0902 -102.4830 314° West 362 417 36,000  Level FlightAware ADS-B
Sun 07:47:31 PM 38.1247 -102.5310 312° West 359 413 36,000 -218 Level FlightAware ADS-B
Sun 07:47:56 PM 38.1520 -102.5680 313° West 355 409 35,800 -667 Descending FlightAware ADS-B
Sun 07:48:07 PM 38.1661 -102.5840 318° Northwest 356 410 35,600 -1,000 Descending FlightAware ADS-B
Sun 07:48:38 PM 38.2046 -102.6250 320° Northwest 355 409 35,100 -1,065 Descending FlightAware ADS-B
Sun 07:49:09 PM 38.2428 -102.6660 320° Northwest 348 400 34,500 -1,114 Descending FlightAware ADS-B
Sun 07:49:48 PM 38.2895 -102.7160 320° Northwest 339 390 33,800 -1,043 Descending FlightAware ADS-B
Sun 07:50:18 PM 38.3245 -102.7540 320° Northwest 330 380 33,300 -762 Descending FlightAware ADS-B
Sun 07:50:51 PM 38.3641 -102.7980 319° Northwest 341 392 33,000 -340 Descending FlightAware ADS-B
Sun 07:51:11 PM 38.3871 -102.8230 320° Northwest 342 394 33,000  Level FlightAware ADS-B
Sun 07:51:18 PM 38.3954 -102.8340 314° West 340 391 33,000  Level FlightAware ADS-B
Sun 07:51:23 PM 38.4004 -102.8410 312° West 339 390 33,000  Level FlightAware ADS-B
Sun 07:51:34 PM 38.4096 -102.8590 303° West 336 387 33,000  Level FlightAware ADS-B
Sun 07:51:40 PM 38.4140 -102.8690 299° West 337 388 33,000  Level FlightAware ADS-B
Sun 07:51:48 PM 38.4185 -102.8850 290° West 337 388 33,000 -750 Level FlightAware ADS-B
Sun 07:51:56 PM 38.4210 -102.9000 282° West 338 389 32,800 -1,125 Descending FlightAware ADS-B
Sun 07:52:04 PM 38.4218 -102.9170 273° West 341 392 32,700 -1,667 Descending FlightAware ADS-B
Sun 07:52:32 PM 38.4210 -102.9720 269° West 337 388 31,800 -1,627 Descending FlightAware ADS-B
Sun 07:53:03 PM 38.4217 -103.0320 271° West 335 386 31,100 -1,377 Descending FlightAware ADS-B
Sun 07:53:33 PM 38.4230 -103.0920 272° West 334 384 30,400 -1,200 Descending FlightAware ADS-B
Sun 07:54:03 PM 38.4241 -103.1510 271° West 339 390 29,900 -750 Descending FlightAware ADS-B
Sun 07:54:13 PM 38.4250 -103.1710 273° West 338 389 29,900 -353 Level FlightAware ADS-B
Sun 07:54:20 PM 38.4270 -103.1850 280° West 335 386 29,800 -1,200 Descending FlightAware ADS-B
Sun 07:54:28 PM 38.4310 -103.1990 290° West 334 384 29,600 -1,600 Descending FlightAware ADS-B
Sun 07:54:35 PM 38.4366 -103.2120 299° West 333 383 29,400 -1,600 Descending FlightAware ADS-B
Sun 07:54:43 PM 38.4434 -103.2230 308° West 335 386 29,200 -1,667 Descending FlightAware ADS-B
Sun 07:54:53 PM 38.4552 -103.2370 317° Northwest 338 389 28,900 -1,650 Descending FlightAware ADS-B
Sun 07:55:23 PM 38.4916 -103.2750 321° Northwest 331 381 28,100 -984 Descending FlightAware ADS-B
Sun 07:55:54 PM 38.5277 -103.3140 320° Northwest 327 376 27,900 -97 Descending FlightAware ADS-B
Sun 07:56:25 PM 38.5625 -103.3500 321° Northwest 301 346 28,000 95 Climbing FlightAware ADS-B
Sun 07:56:57 PM 38.5950 -103.3850 320° Northwest 289 333 28,000  Level FlightAware ADS-B
Sun 07:57:28 PM 38.6266 -103.4180 321° Northwest 288 331 28,000  Level FlightAware ADS-B
Sun 07:57:59 PM 38.6585 -103.4520 320° Northwest 289 333 28,000  Level FlightAware ADS-B
Sun 07:58:30 PM 38.6902 -103.4860 320° Northwest 288 331 28,000  Level FlightAware ADS-B
Sun 07:59:01 PM 38.7225 -103.5200 321° Northwest 289 333 28,000  Level FlightAware ADS-B
Sun 07:59:32 PM 38.7540 -103.5530 321° Northwest 287 330 28,000  Level FlightAware ADS-B
Sun 08:00:03 PM 38.7853 -103.5870 320° Northwest 287 330 28,000  Level FlightAware ADS-B
Sun 08:00:33 PM 38.8165 -103.6200 321° Northwest 288 331 28,000 -140 Level FlightAware ADS-B
Sun 08:00:46 PM 38.8294 -103.6340 320° Northwest 286 329 27,900 -632 Descending FlightAware ADS-B
Sun 08:00:52 PM 38.8345 -103.6410 313° West 283 326 27,800 -923 Descending FlightAware ADS-B
Sun 08:00:59 PM 38.8400 -103.6510 305° West 278 320 27,700 -462 Descending FlightAware ADS-B
Sun 08:01:05 PM 38.8437 -103.6590 301° West 276 318 27,700 -500 Level FlightAware ADS-B
Sun 08:01:11 PM 38.8468 -103.6690 292° West 275 316 27,600 -600 Descending FlightAware ADS-B
Sun 08:01:15 PM 38.8484 -103.6750 289° West 274 315 27,600 -667 Level FlightAware ADS-B
Sun 08:01:20 PM 38.8500 -103.6830 284° West 275 316 27,500 -462 Descending FlightAware ADS-B
Sun 08:01:28 PM 38.8514 -103.6950 279° West 277 319 27,500 -462 Level FlightAware ADS-B
Sun 08:01:33 PM 38.8517 -103.7040 272° West 279 321 27,400 -500 Descending FlightAware ADS-B
Sun 08:01:40 PM 38.8514 -103.7150 268° West 282 325 27,400 -429 Level FlightAware ADS-B
Sun 08:01:47 PM 38.8498 -103.7270 260° West 285 328 27,300 -1,000 Descending FlightAware ADS-B
Sun 08:01:52 PM 38.8484 -103.7340 256° West 288 331 27,200 -545 Descending FlightAware ADS-B
Sun 08:01:58 PM 38.8456 -103.7450 252° West 291 335 27,200 -429 Level FlightAware ADS-B
Sun 08:02:06 PM 38.8407 -103.7570 242° Southwest 296 341 27,100 -750 Descending FlightAware ADS-B
Sun 08:02:14 PM 38.8339 -103.7700 236° Southwest 303 349 27,000 -375 Descending FlightAware ADS-B
Sun 08:02:22 PM 38.8270 -103.7790 225° Southwest 309 356 27,000  Level FlightAware ADS-B
Sun 08:02:28 PM 38.8199 -103.7870 221° Southwest 314 361 27,000  Level FlightAware ADS-B
Sun 08:02:36 PM 38.8106 -103.7940 210° Southwest 322 371 27,000  Level FlightAware ADS-B
Sun 08:02:40 PM 38.8046 -103.7980 207° Southwest 325 374 27,000  Level FlightAware ADS-B
Sun 08:02:44 PM 38.7985 -103.8020 207° Southwest 330 380 27,000  Level FlightAware ADS-B
Sun 08:02:52 PM 38.7874 -103.8050 192° South 337 388 27,000  Level FlightAware ADS-B
Sun 08:03:01 PM 38.7736 -103.8070 186° South 347 399 27,000  Level FlightAware ADS-B
Sun 08:03:06 PM 38.7652 -103.8070 180° South 352 405 27,000  Level FlightAware ADS-B
Sun 08:03:12 PM 38.7558 -103.8050 171° South 356 410 27,000  Level FlightAware ADS-B
Sun 08:03:18 PM 38.7462 -103.8020 166° South 365 420 27,000  Level FlightAware ADS-B
Sun 08:03:23 PM 38.7369 -103.7970 157° South 370 426 27,000  Level FlightAware ADS-B
Sun 08:03:29 PM 38.7292 -103.7910 149° Southeast 374 430 27,000  Level FlightAware ADS-B
Sun 08:03:34 PM 38.7220 -103.7840 143° Southeast 377 434 27,000  Level FlightAware ADS-B
Sun 08:04:04 PM 38.6819 -103.7390 139° Southeast 378 435 27,000  Level FlightAware ADS-B
Sun 08:04:35 PM 38.6422 -103.6940 138° Southeast 376 433 27,000  Level FlightAware ADS-B
Sun 08:05:06 PM 38.6015 -103.6500 140° Southeast 375 432 27,000  Level FlightAware ADS-B
Sun 08:05:14 PM 38.5901 -103.6360 136° Southeast 376 433 27,000  Level FlightAware ADS-B
Sun 08:05:19 PM 38.5849 -103.6290 134° Southeast 378 435 27,000  Level FlightAware ADS-B
Sun 08:05:25 PM 38.5790 -103.6190 127° Southeast 380 437 27,000  Level FlightAware ADS-B
Sun 08:05:32 PM 38.5726 -103.6030 117° Southeast 381 438 27,000  Level FlightAware ADS-B
Sun 08:05:39 PM 38.5691 -103.5900 109° East 383 441 27,000  Level FlightAware ADS-B
Sun 08:05:45 PM 38.5672 -103.5760 100° East 384 442 27,000  Level FlightAware ADS-B
Sun 08:05:48 PM 38.5669 -103.5680 93° East 382 440 27,000  Level FlightAware ADS-B
Sun 08:05:53 PM 38.5672 -103.5570 88° East 380 437 27,000  Level FlightAware ADS-B
Sun 08:05:59 PM 38.5688 -103.5440 81° East 378 435 27,000  Level FlightAware ADS-B
Sun 08:06:06 PM 38.5725 -103.5290 72° East 373 429 27,000  Level FlightAware ADS-B
Sun 08:06:12 PM 38.5763 -103.5190 64° Northeast 367 422 27,000  Level FlightAware ADS-B
Sun 08:06:17 PM 38.5808 -103.5100 57° Northeast 363 418 27,000  Level FlightAware ADS-B
Sun 08:06:21 PM 38.5853 -103.5020 54° Northeast 357 411 27,000  Level FlightAware ADS-B
Sun 08:06:26 PM 38.5906 -103.4950 46° Northeast 352 405 27,000  Level FlightAware ADS-B
Sun 08:06:33 PM 38.5992 -103.4860 39° Northeast 345 397 27,000 -462 Level FlightAware ADS-B
Sun 08:06:39 PM 38.6066 -103.4790 36° Northeast 339 390 26,900 -1,200 Descending FlightAware ADS-B
Sun 08:06:43 PM 38.6120 -103.4760 23° Northeast 334 384 26,800 -1,385 Descending FlightAware ADS-B
Sun 08:06:52 PM 38.6250 -103.4690 23° Northeast 323 372 26,600 -1,286 Descending FlightAware ADS-B
Sun 08:06:57 PM 38.6331 -103.4670 11° North 317 365 26,500 -1,000 Descending FlightAware ADS-B
Sun 08:07:04 PM 38.6423 -103.4660 North 310 357 26,400 -500 Descending FlightAware ADS-B
Sun 08:07:09 PM 38.6491 -103.4660 360° North 305 351 26,400 -545 Level FlightAware ADS-B
Sun 08:07:15 PM 38.6574 -103.4670 355° North 300 345 26,300 -1,000 Descending FlightAware ADS-B
Sun 08:07:21 PM 38.6666 -103.4690 350° North 297 342 26,200 -1,385 Descending FlightAware ADS-B
Sun 08:07:28 PM 38.6757 -103.4730 341° North 293 337 26,000 -1,091 Descending FlightAware ADS-B
Sun 08:07:32 PM 38.6795 -103.4750 338° Northwest 291 335 26,000 -667 Level FlightAware ADS-B
Sun 08:07:37 PM 38.6859 -103.4790 334° Northwest 288 331 25,900 -1,091 Descending FlightAware ADS-B
Sun 08:07:43 PM 38.6927 -103.4850 325° Northwest 285 328 25,800 -1,000 Descending FlightAware ADS-B
Sun 08:08:13 PM 38.7232 -103.5180 320° Northwest 285 328 25,300 -787 Descending FlightAware ADS-B
Sun 08:08:44 PM 38.7548 -103.5520 320° Northwest 287 330 25,000 -290 Descending FlightAware ADS-B
Sun 08:09:15 PM 38.7852 -103.5850 320° Northwest 284 327 25,000  Level FlightAware ADS-B
Sun 08:09:45 PM 38.8152 -103.6180 319° Northwest 279 321 25,000  Level FlightAware ADS-B
Sun 08:09:58 PM 38.8275 -103.6320 318° Northwest 275 316 25,000  Level FlightAware ADS-B
Sun 08:10:03 PM 38.8318 -103.6380 313° West 273 314 25,000  Level FlightAware ADS-B
Sun 08:10:06 PM 38.8340 -103.6420 305° West 273 314 25,000  Level FlightAware ADS-B
Sun 08:10:11 PM 38.8377 -103.6490 304° West 270 311 25,000  Level FlightAware ADS-B
Sun 08:10:16 PM 38.8405 -103.6560 297° West 268 308 25,000  Level FlightAware ADS-B
Sun 08:10:25 PM 38.8441 -103.6680 291° West 264 304 25,000  Level FlightAware ADS-B
Sun 08:10:30 PM 38.8455 -103.6760 283° West 262 302 25,000  Level FlightAware ADS-B
Sun 08:10:34 PM 38.8461 -103.6830 276° West 261 300 25,000  Level FlightAware ADS-B
Sun 08:10:42 PM 38.8464 -103.6960 272° West 261 300 25,000  Level FlightAware ADS-B
Sun 08:10:50 PM 38.8453 -103.7070 263° West 261 300 25,000  Level FlightAware ADS-B
Sun 08:10:59 PM 38.8426 -103.7200 255° West 263 303 25,000  Level FlightAware ADS-B
Sun 08:11:06 PM 38.8389 -103.7310 247° West 267 307 25,000  Level FlightAware ADS-B
Sun 08:11:14 PM 38.8340 -103.7410 238° Southwest 273 314 25,000  Level FlightAware ADS-B
Sun 08:11:21 PM 38.8282 -103.7500 230° Southwest 279 321 25,000  Level FlightAware ADS-B
Sun 08:11:27 PM 38.8226 -103.7570 224° Southwest 283 326 25,000 -545 Level FlightAware ADS-B
Sun 08:11:32 PM 38.8170 -103.7630 220° Southwest 285 328 24,900 -1,200 Descending FlightAware ADS-B
Sun 08:11:37 PM 38.8109 -103.7670 207° Southwest 290 334 24,800 -545 Descending FlightAware ADS-B
Sun 08:11:43 PM 38.8043 -103.7710 205° Southwest 294 338 24,800 -545 Level FlightAware ADS-B
Sun 08:11:48 PM 38.7981 -103.7740 201° Southwest 299 344 24,700 -667 Descending FlightAware ADS-B
Sun 08:11:52 PM 38.7926 -103.7750 188° South 302 348 24,700  Level FlightAware ADS-B
Sun 08:11:55 PM 38.7883 -103.7760 190° South 305 351 24,700 -857 Level FlightAware ADS-B
Sun 08:11:59 PM 38.7827 -103.7770 188° South 308 354 24,600 -923 Descending FlightAware ADS-B
Sun 08:12:08 PM 38.7698 -103.7760 177° South 314 361 24,500 -429 Descending FlightAware ADS-B
Sun 08:12:13 PM 38.7631 -103.7740 167° South 317 365 24,500 -500 Level FlightAware ADS-B
Sun 08:12:20 PM 38.7524 -103.7680 156° South 319 367 24,400 -923 Descending FlightAware ADS-B
Sun 08:12:26 PM 38.7451 -103.7630 152° Southeast 320 368 24,300 -857 Descending FlightAware ADS-B
Sun 08:12:34 PM 38.7358 -103.7540 143° Southeast 320 368 24,200 -529 Descending FlightAware ADS-B
Sun 08:13:00 PM 38.7078 -103.7210 137° Southeast 310 357 24,000 -214 Descending FlightAware ADS-B
Sun 08:13:30 PM 38.6749 -103.6850 139° Southeast 315 362 24,000 -98 Level FlightAware ADS-B
Sun 08:14:01 PM 38.6410 -103.6480 140° Southeast 313 360 23,900 -600 Descending FlightAware ADS-B
Sun 08:14:30 PM 38.6094 -103.6130 139° Southeast 309 356 23,400 -1,059 Descending FlightAware ADS-B
Sun 08:14:35 PM 38.6041 -103.6060 134° Southeast 311 358 23,300 -1,200 Descending FlightAware ADS-B
Sun 08:14:40 PM 38.6001 -103.5990 126° Southeast 312 359 23,200 -923 Descending FlightAware ADS-B
Sun 08:14:48 PM 38.5947 -103.5870 120° Southeast 312 359 23,100 -800 Descending FlightAware ADS-B
Sun 08:14:55 PM 38.5909 -103.5730 109° East 312 359 23,000 -923 Descending FlightAware ADS-B
Sun 08:15:01 PM 38.5894 -103.5640 102° East 313 360 22,900 -1,333 Descending FlightAware ADS-B
Sun 08:15:04 PM 38.5890 -103.5590 96° East 313 360 22,800 -2,000 Descending FlightAware ADS-B
Sun 08:15:07 PM 38.5889 -103.5520 91° East 314 361 22,700 -1,500 Descending FlightAware ADS-B
Sun 08:15:12 PM 38.5892 -103.5430 88° East 314 361 22,600 -1,333 Descending FlightAware ADS-B
Sun 08:15:16 PM 38.5903 -103.5350 80° East 315 362 22,500 -1,200 Descending FlightAware ADS-B
Sun 08:15:22 PM 38.5924 -103.5260 73° East 314 361 22,400 -1,200 Descending FlightAware ADS-B
Sun 08:15:26 PM 38.5946 -103.5190 68° East 313 360 22,300 -1,333 Descending FlightAware ADS-B
Sun 08:15:31 PM 38.5978 -103.5110 63° Northeast 312 359 22,200 -1,333 Descending FlightAware ADS-B
Sun 08:15:35 PM 38.6013 -103.5040 57° Northeast 311 358 22,100 -1,500 Descending FlightAware ADS-B
Sun 08:15:39 PM 38.6052 -103.4980 50° Northeast 307 353 22,000 -545 Descending FlightAware ADS-B
Sun 08:15:46 PM 38.6123 -103.4890 45° Northeast 302 348 22,000  Level FlightAware ADS-B
Sun 08:15:51 PM 38.6170 -103.4850 34° Northeast 301 346 22,000  Level FlightAware ADS-B
Sun 08:15:57 PM 38.6235 -103.4800 31° Northeast 300 345 22,000  Level FlightAware ADS-B
Sun 08:16:00 PM 38.6285 -103.4770 25° Northeast 299 344 22,000  Level FlightAware ADS-B
Sun 08:16:06 PM 38.6356 -103.4730 24° Northeast 297 342 22,000  Level FlightAware ADS-B
Sun 08:16:09 PM 38.6406 -103.4720 North 294 338 22,000  Level FlightAware ADS-B
Sun 08:16:16 PM 38.6500 -103.4700 North 287 330 22,000  Level FlightAware ADS-B
Sun 08:16:24 PM 38.6601 -103.4700 360° North 281 323 22,000  Level FlightAware ADS-B
Sun 08:16:30 PM 38.6681 -103.4720 349° North 276 318 22,000  Level FlightAware ADS-B
Sun 08:16:36 PM 38.6752 -103.4750 342° North 273 314 22,000 -429 Level FlightAware ADS-B
Sun 08:16:44 PM 38.6830 -103.4800 333° Northwest 269 310 21,900 -1,105 Descending FlightAware ADS-B
Sun 08:17:14 PM 38.7118 -103.5110 320° Northwest 271 312 21,300 -1,286 Descending FlightAware ADS-B
Sun 08:17:40 PM 38.7368 -103.5380 320° Northwest 274 315 20,700 -1,071 Descending FlightAware ADS-B
Sun 08:18:10 PM 38.7656 -103.5690 320° Northwest 266 306 20,300 -952 Descending FlightAware ADS-B
Sun 08:18:43 PM 38.7966 -103.6030 319° Northwest 263 303 19,700 -1,048 Descending FlightAware ADS-B
Sun 08:19:13 PM 38.8238 -103.6340 318° Northwest 259 298 19,200 -984 Descending FlightAware ADS-B
Sun 08:19:44 PM 38.8513 -103.6640 320° Northwest 261 300 18,700 -984 Descending FlightAware ADS-B
Sun 08:20:14 PM 38.8787 -103.6950 319° Northwest 262 302 18,200 -900 Descending FlightAware ADS-B
Sun 08:20:44 PM 38.9090 -103.7290 319° Northwest 306 352 17,800 -900 Descending FlightAware ADS-B
Sun 08:21:14 PM 38.9416 -103.7660 319° Northwest 316 364 17,300 -900 Descending FlightAware ADS-B
Sun 08:21:44 PM 38.9746 -103.8030 319° Northwest 313 360 16,900 -387 Descending FlightAware ADS-B
Sun 08:22:16 PM 39.0087 -103.8400 320° Northwest 306 352 16,900  Level FlightAware ADS-B
Sun 08:22:46 PM 39.0405 -103.8760 319° Northwest 303 349 16,900  Level FlightAware ADS-B
Sun 08:23:16 PM 39.0726 -103.9120 319° Northwest 313 360 16,900  Level FlightAware ADS-B
Sun 08:23:46 PM 39.1061 -103.9500 319° Northwest 318 366 16,900  Level FlightAware ADS-B
Sun 08:24:17 PM 39.1392 -103.9870 319° Northwest 308 354 16,900  Level FlightAware ADS-B
Sun 08:24:47 PM 39.1714 -104.0230 319° Northwest 304 350 16,900  Level FlightAware ADS-B
Sun 08:25:17 PM 39.2029 -104.0590 318° Northwest 301 346 16,900  Level FlightAware ADS-B
Sun 08:25:33 PM 39.2197 -104.0770 320° Northwest 304 350 16,900 -400 Level FlightAware ADS-B
Sun 08:26:02 PM 39.2528 -104.1090 323° Northwest 304 350 16,600 -814 Descending FlightAware ADS-B
Sun 08:26:32 PM 39.2864 -104.1400 324° Northwest 297 342 16,100 -984 Descending FlightAware ADS-B
Sun 08:27:03 PM 39.3207 -104.1740 323° Northwest 305 351 15,600 -968 Descending FlightAware ADS-B
Sun 08:27:34 PM 39.3564 -104.2090 323° Northwest 308 354 15,100 -1,258 Descending FlightAware ADS-B
Sun 08:28:05 PM 39.3904 -104.2420 323° Northwest 308 354 14,300 -1,574 Descending FlightAware ADS-B
Sun 08:28:35 PM 39.4251 -104.2770 322° Northwest 308 354 13,500 -1,500 Descending FlightAware ADS-B
Sun 08:28:57 PM 39.4498 -104.3010 323° Northwest 305 351 13,000 -692 Descending FlightAware ADS-B
Sun 08:29:27 PM 39.4831 -104.3340 323° Northwest 301 346 12,900 -98 Descending FlightAware ADS-B
Sun 08:29:58 PM 39.5170 -104.3670 323° Northwest 302 348 12,900  Level FlightAware ADS-B
Sun 08:30:28 PM 39.5509 -104.4010 322° Northwest 299 344 12,900  Level FlightAware ADS-B
Sun 08:30:59 PM 39.5841 -104.4340 323° Northwest 298 343 12,900  Level FlightAware ADS-B
Sun 08:31:26 PM 39.6141 -104.4640 322° Northwest 303 349 12,900  Level FlightAware ADS-B
Sun 08:31:56 PM 39.6476 -104.4970 323° Northwest 301 346 12,900  Level FlightAware ADS-B
Sun 08:32:12 PM 39.6650 -104.5140 323° Northwest 303 349 12,900  Level FlightAware ADS-B
Sun 08:32:17 PM 39.6711 -104.5180 333° Northwest 303 349 12,900  Level FlightAware ADS-B
Sun 08:32:22 PM 39.6775 -104.5220 334° Northwest 301 346 12,900  Level FlightAware ADS-B
Sun 08:32:27 PM 39.6851 -104.5240 349° North 302 348 12,900  Level FlightAware ADS-B
Sun 08:32:37 PM 39.6987 -104.5240 360° North 302 348 12,900  Level FlightAware ADS-B
Sun 08:33:01 PM 39.7323 -104.5230 North 302 348 12,900  Level FlightAware ADS-B
Sun 08:33:31 PM 39.7748 -104.5200 North 307 353 12,900  Level FlightAware ADS-B
Sun 08:34:01 PM 39.8177 -104.5170 North 308 354 12,900  Level FlightAware ADS-B
Sun 08:34:16 PM 39.8385 -104.5160 North 310 357 12,900 -391 Level FlightAware ADS-B
Sun 08:34:47 PM 39.8817 -104.5140 North 298 343 12,600 -1,053 Descending FlightAware ADS-B
Sun 08:35:13 PM 39.9179 -104.5130 North 293 337 11,900 -1,615 Descending FlightAware ADS-B
Sun 08:35:39 PM 39.9533 -104.5110 North 295 339 11,200 -1,053 Descending FlightAware ADS-B
Sun 08:36:10 PM 39.9936 -104.5100 North 274 315 10,900 -310 Descending FlightAware ADS-B
Sun 08:36:37 PM 40.0260 -104.5090 North 254 292 10,900  Level FlightAware ADS-B
Sun 08:37:01 PM 40.0536 -104.5080 North 245 282 10,900 -698 Level FlightAware ADS-B
Sun 08:37:20 PM 40.0759 -104.5070 North 249 287 10,400 -1,440 Descending FlightAware ADS-B
Sun 08:37:26 PM 40.0829 -104.5080 354° North 250 288 10,300 -1,200 Descending FlightAware ADS-B
Sun 08:37:30 PM 40.0865 -104.5090 348° North 249 287 10,200 -1,714 Descending FlightAware ADS-B
Sun 08:37:33 PM 40.0899 -104.5110 336° Northwest 248 285 10,100 -750 Descending FlightAware ADS-B
Sun 08:37:38 PM 40.0948 -104.5150 328° Northwest 245 282 10,100 -667 Level FlightAware ADS-B
Sun 08:37:42 PM 40.0984 -104.5190 320° Northwest 242 278 10,000 -1,500 Descending FlightAware ADS-B
Sun 08:37:46 PM 40.1011 -104.5230 311° West 241 277 9,900 -2,000 Descending FlightAware ADS-B
Sun 08:37:51 PM 40.1041 -104.5290 303° West 241 277 9,700 -2,250 Descending FlightAware ADS-B
Sun 08:37:54 PM 40.1056 -104.5340 291° West 241 277 9,600 -1,714 Descending FlightAware ADS-B
Sun 08:37:58 PM 40.1068 -104.5400 285° West 241 277 9,500 -1,714 Descending FlightAware ADS-B
Sun 08:38:01 PM 40.1072 -104.5440 277° West 242 278 9,400 -1,714 Descending FlightAware ADS-B
Sun 08:38:05 PM 40.1073 -104.5490 271° West 242 278 9,300 -1,714 Descending FlightAware ADS-B
Sun 08:38:08 PM 40.1071 -104.5540 267° West 242 278 9,200 -1,200 Descending FlightAware ADS-B
Sun 08:38:15 PM 40.1060 -104.5630 261° West 242 278 9,100 -1,304 Descending FlightAware ADS-B
Sun 08:38:31 PM 40.1024 -104.5860 258° West 238 274 8,700 -1,440 Descending FlightAware ADS-B
Sun 08:38:40 PM 40.1003 -104.5990 258° West 237 273 8,500 -1,286 Descending FlightAware ADS-B
Sun 08:38:45 PM 40.0993 -104.6060 259° West 237 273 8,400 -1,500 Descending FlightAware ADS-B
Sun 08:38:48 PM 40.0983 -104.6100 252° West 238 274 8,300 -2,000 Descending FlightAware ADS-B
Sun 08:38:51 PM 40.0968 -104.6150 249° West 237 273 8,200 -1,714 Descending FlightAware ADS-B
Sun 08:38:55 PM 40.0952 -104.6190 242° Southwest 237 273 8,100 -1,714 Descending FlightAware ADS-B
Sun 08:38:58 PM 40.0931 -104.6220 228° Southwest 239 275 8,000 -2,000 Descending FlightAware ADS-B
Sun 08:39:01 PM 40.0908 -104.6250 225° Southwest 240 276 7,900 -1,714 Descending FlightAware ADS-B
Sun 08:39:05 PM 40.0868 -104.6290 217° Southwest 241 277 7,800 -1,500 Descending FlightAware ADS-B
Sun 08:39:09 PM 40.0828 -104.6320 210° Southwest 242 278 7,700 -1,500 Descending FlightAware ADS-B
Sun 08:39:13 PM 40.0788 -104.6340 201° Southwest 243 280 7,600 -1,579 Descending FlightAware ADS-B
Sun 08:39:28 PM 40.0628 -104.6420 201° Southwest 240 276 7,200 -1,364 Descending FlightAware ADS-B
Sun 08:39:35 PM 40.0555 -104.6450 197° South 239 275 7,100 -667 Descending FlightAware ADS-B
Sun 08:39:46 PM 40.0439 -104.6510 202° Southwest 241 277 7,000 -444 Descending FlightAware ADS-B
Sun 08:40:02 PM 40.0278 -104.6600 203° Southwest 238 274 6,900 -207 Descending FlightAware ADS-B
Sun 08:40:15 PM 40.0150 -104.6670 203° Southwest 242 278 6,900  Level FlightAware ADS-B
Sun 08:40:30 PM 39.9990 -104.6750 201° Southwest 245 282 6,900  Level FlightAware ADS-B
Sun 08:40:39 PM 39.9897 -104.6800 202° Southwest 245 282 6,900 -400 Level FlightAware ADS-B
Sun 08:40:45 PM 39.9826 -104.6830 198° South 245 282 6,800 -600 Descending FlightAware ADS-B
Sun 08:40:49 PM 39.9781 -104.6850 199° South 244 281 6,800  Level FlightAware ADS-B
Sun 08:40:54 PM 39.9734 -104.6850 180° South 235 270 6,800 -1,125 Level FlightAware ADS-B
Sun 08:41:05 PM 39.9613 -104.6860 184° South 224 258 6,500 -1,600 Descending FlightAware ADS-B
Sun 08:41:09 PM 39.9573 -104.6860 180° South 221 254 6,400 -1,286 Descending FlightAware ADS-B
Sun 08:41:19 PM 39.9478 -104.6860 180° South 212 244 6,200 -960 Descending FlightAware ADS-B
Sun 08:41:34 PM 39.9334 -104.6860 180° South 199 229 6,000 -968 Descending FlightAware ADS-B
Sun 08:41:50 PM 39.9199 -104.6870 183° South 180 207 5,700 -909 Descending FlightAware ADS-B
Sun 08:42:07 PM 39.9067 -104.6870 180° South 161 185 5,500 -714 Descending FlightAware ADS-B
Sun 08:42:32 PM 39.8883 -104.6870 180° South 152 175 5,200 -720 Descending FlightAware ADS-B

Login

Don't have an account? Register now (free) for customized features, flight alerts, and more!